sensor_id;sensor_type;location;lat;lon;timestamp;pressure;altitude;pressure_sealevel;temperature
20289;BMP180;10303;51.960;8.372;2024-02-16T00:00:25;100031.00;;;14.70
20289;BMP180;10303;51.960;8.372;2024-02-16T00:02:52;100041.00;;;14.70
20289;BMP180;10303;51.960;8.372;2024-02-16T00:05:18;100028.00;;;14.60
20289;BMP180;10303;51.960;8.372;2024-02-16T00:07:44;100023.00;;;14.60
20289;BMP180;10303;51.960;8.372;2024-02-16T00:10:11;100032.00;;;14.60
20289;BMP180;10303;51.960;8.372;2024-02-16T00:12:40;100036.00;;;14.60
20289;BMP180;10303;51.960;8.372;2024-02-16T00:15:08;100028.00;;;14.60
20289;BMP180;10303;51.960;8.372;2024-02-16T00:17:34;100033.00;;;14.60
20289;BMP180;10303;51.960;8.372;2024-02-16T00:20:00;100033.00;;;14.60
20289;BMP180;10303;51.960;8.372;2024-02-16T00:22:26;100035.00;;;14.60
20289;BMP180;10303;51.960;8.372;2024-02-16T00:24:52;100024.00;;;14.60
20289;BMP180;10303;51.960;8.372;2024-02-16T00:27:18;100027.00;;;14.60
20289;BMP180;10303;51.960;8.372;2024-02-16T00:29:44;100028.00;;;14.60
20289;BMP180;10303;51.960;8.372;2024-02-16T00:32:12;100028.00;;;14.60
20289;BMP180;10303;51.960;8.372;2024-02-16T00:34:38;100030.00;;;14.60
20289;BMP180;10303;51.960;8.372;2024-02-16T00:37:07;100022.00;;;14.60
20289;BMP180;10303;51.960;8.372;2024-02-16T00:39:40;100035.00;;;14.50
20289;BMP180;10303;51.960;8.372;2024-02-16T00:42:06;100028.00;;;14.60
20289;BMP180;10303;51.960;8.372;2024-02-16T00:44:32;100022.00;;;14.50
20289;BMP180;10303;51.960;8.372;2024-02-16T00:46:58;100021.00;;;14.60
20289;BMP180;10303;51.960;8.372;2024-02-16T00:49:24;100024.00;;;14.50
20289;BMP180;10303;51.960;8.372;2024-02-16T00:51:50;100029.00;;;14.50
20289;BMP180;10303;51.960;8.372;2024-02-16T00:54:18;100026.00;;;14.50
20289;BMP180;10303;51.960;8.372;2024-02-16T00:56:46;100029.00;;;14.50
20289;BMP180;10303;51.960;8.372;2024-02-16T00:59:12;100024.00;;;14.50
20289;BMP180;10303;51.960;8.372;2024-02-16T01:01:38;100020.00;;;14.50
20289;BMP180;10303;51.960;8.372;2024-02-16T01:04:04;100016.00;;;14.50
20289;BMP180;10303;51.960;8.372;2024-02-16T01:06:33;100012.00;;;14.50
20289;BMP180;10303;51.960;8.372;2024-02-16T01:08:59;100024.00;;;14.50
20289;BMP180;10303;51.960;8.372;2024-02-16T01:11:24;100029.00;;;14.50
20289;BMP180;10303;51.960;8.372;2024-02-16T01:13:52;100020.00;;;14.50
20289;BMP180;10303;51.960;8.372;2024-02-16T01:16:18;100031.00;;;14.50
20289;BMP180;10303;51.960;8.372;2024-02-16T01:18:44;100021.00;;;14.50
20289;BMP180;10303;51.960;8.372;2024-02-16T01:21:11;100019.00;;;14.50
20289;BMP180;10303;51.960;8.372;2024-02-16T01:23:37;100020.00;;;14.50
20289;BMP180;10303;51.960;8.372;2024-02-16T01:26:03;100022.00;;;14.50
20289;BMP180;10303;51.960;8.372;2024-02-16T01:28:29;100006.00;;;14.50
20289;BMP180;10303;51.960;8.372;2024-02-16T01:30:55;100006.00;;;14.40
20289;BMP180;10303;51.960;8.372;2024-02-16T01:33:22;100013.00;;;14.40
20289;BMP180;10303;51.960;8.372;2024-02-16T01:35:48;100016.00;;;14.40
20289;BMP180;10303;51.960;8.372;2024-02-16T01:38:14;100016.00;;;14.40
20289;BMP180;10303;51.960;8.372;2024-02-16T01:40:40;100021.00;;;14.40
20289;BMP180;10303;51.960;8.372;2024-02-16T01:43:06;100021.00;;;14.40
20289;BMP180;10303;51.960;8.372;2024-02-16T01:45:32;100009.00;;;14.30
20289;BMP180;10303;51.960;8.372;2024-02-16T01:47:58;100012.00;;;14.30
20289;BMP180;10303;51.960;8.372;2024-02-16T01:50:25;100011.00;;;14.30
20289;BMP180;10303;51.960;8.372;2024-02-16T01:52:52;100013.00;;;14.30
20289;BMP180;10303;51.960;8.372;2024-02-16T01:55:20;100010.00;;;14.30
20289;BMP180;10303;51.960;8.372;2024-02-16T01:57:47;100007.00;;;14.30
20289;BMP180;10303;51.960;8.372;2024-02-16T02:00:15;100001.00;;;14.30
20289;BMP180;10303;51.960;8.372;2024-02-16T02:02:45;100007.00;;;14.30
20289;BMP180;10303;51.960;8.372;2024-02-16T02:05:12;100005.00;;;14.20
20289;BMP180;10303;51.960;8.372;2024-02-16T02:07:38;99991.00;;;14.20
20289;BMP180;10303;51.960;8.372;2024-02-16T02:10:05;99989.00;;;14.20
20289;BMP180;10303;51.960;8.372;2024-02-16T02:12:31;99997.00;;;14.20
20289;BMP180;10303;51.960;8.372;2024-02-16T02:14:56;99986.00;;;14.20
20289;BMP180;10303;51.960;8.372;2024-02-16T02:17:22;99987.00;;;14.20
20289;BMP180;10303;51.960;8.372;2024-02-16T02:19:49;99986.00;;;14.20
20289;BMP180;10303;51.960;8.372;2024-02-16T02:22:17;99990.00;;;14.20
20289;BMP180;10303;51.960;8.372;2024-02-16T02:24:48;99982.00;;;14.20
20289;BMP180;10303;51.960;8.372;2024-02-16T02:27:15;99981.00;;;14.20
20289;BMP180;10303;51.960;8.372;2024-02-16T02:29:42;99974.00;;;14.20
20289;BMP180;10303;51.960;8.372;2024-02-16T02:32:09;99977.00;;;14.20
20289;BMP180;10303;51.960;8.372;2024-02-16T02:34:36;99977.00;;;14.30
20289;BMP180;10303;51.960;8.372;2024-02-16T02:37:05;99965.00;;;14.20
20289;BMP180;10303;51.960;8.372;2024-02-16T02:39:32;99963.00;;;14.30
20289;BMP180;10303;51.960;8.372;2024-02-16T02:41:58;99961.00;;;14.30
20289;BMP180;10303;51.960;8.372;2024-02-16T02:44:25;99957.00;;;14.30
20289;BMP180;10303;51.960;8.372;2024-02-16T02:46:51;99959.00;;;14.30
20289;BMP180;10303;51.960;8.372;2024-02-16T02:49:18;99961.00;;;14.30
20289;BMP180;10303;51.960;8.372;2024-02-16T02:51:44;99949.00;;;14.30
20289;BMP180;10303;51.960;8.372;2024-02-16T02:54:10;99956.00;;;14.30
20289;BMP180;10303;51.960;8.372;2024-02-16T02:56:36;99938.00;;;14.30
20289;BMP180;10303;51.960;8.372;2024-02-16T02:59:02;99936.00;;;14.30
20289;BMP180;10303;51.960;8.372;2024-02-16T03:01:30;99952.00;;;14.30
20289;BMP180;10303;51.960;8.372;2024-02-16T03:03:56;99954.00;;;14.30
20289;BMP180;10303;51.960;8.372;2024-02-16T03:06:23;99936.00;;;14.30
20289;BMP180;10303;51.960;8.372;2024-02-16T03:08:49;99941.00;;;14.30
20289;BMP180;10303;51.960;8.372;2024-02-16T03:11:15;99937.00;;;14.30
20289;BMP180;10303;51.960;8.372;2024-02-16T03:13:41;99939.00;;;14.30
20289;BMP180;10303;51.960;8.372;2024-02-16T03:16:06;99947.00;;;14.30
20289;BMP180;10303;51.960;8.372;2024-02-16T03:18:33;99946.00;;;14.30
20289;BMP180;10303;51.960;8.372;2024-02-16T03:21:03;99933.00;;;14.30
20289;BMP180;10303;51.960;8.372;2024-02-16T03:23:29;99941.00;;;14.30
20289;BMP180;10303;51.960;8.372;2024-02-16T03:25:55;99938.00;;;14.30
20289;BMP180;10303;51.960;8.372;2024-02-16T03:28:21;99931.00;;;14.30
20289;BMP180;10303;51.960;8.372;2024-02-16T03:30:47;99934.00;;;14.30
20289;BMP180;10303;51.960;8.372;2024-02-16T03:33:13;99924.00;;;14.30
20289;BMP180;10303;51.960;8.372;2024-02-16T03:35:39;99928.00;;;14.30
20289;BMP180;10303;51.960;8.372;2024-02-16T03:38:06;99928.00;;;14.30
20289;BMP180;10303;51.960;8.372;2024-02-16T03:40:32;99928.00;;;14.30
20289;BMP180;10303;51.960;8.372;2024-02-16T03:42:59;99943.00;;;14.20
20289;BMP180;10303;51.960;8.372;2024-02-16T03:45:25;99932.00;;;14.20
20289;BMP180;10303;51.960;8.372;2024-02-16T03:47:52;99937.00;;;14.20
20289;BMP180;10303;51.960;8.372;2024-02-16T03:50:19;99922.00;;;14.20
20289;BMP180;10303;51.960;8.372;2024-02-16T03:52:46;99937.00;;;14.20
20289;BMP180;10303;51.960;8.372;2024-02-16T03:55:12;99938.00;;;14.20
20289;BMP180;10303;51.960;8.372;2024-02-16T03:57:39;99939.00;;;14.20
20289;BMP180;10303;51.960;8.372;2024-02-16T04:00:06;99934.00;;;14.20
20289;BMP180;10303;51.960;8.372;2024-02-16T04:02:41;99930.00;;;14.20
20289;BMP180;10303;51.960;8.372;2024-02-16T04:05:07;99934.00;;;14.20
20289;BMP180;10303;51.960;8.372;2024-02-16T04:07:35;99933.00;;;14.20
20289;BMP180;10303;51.960;8.372;2024-02-16T04:10:01;99939.00;;;14.20
20289;BMP180;10303;51.960;8.372;2024-02-16T04:12:27;99933.00;;;14.20
20289;BMP180;10303;51.960;8.372;2024-02-16T04:14:52;99934.00;;;14.20
20289;BMP180;10303;51.960;8.372;2024-02-16T04:17:18;99931.00;;;14.20
20289;BMP180;10303;51.960;8.372;2024-02-16T04:19:44;99941.00;;;14.20
20289;BMP180;10303;51.960;8.372;2024-02-16T04:22:10;99928.00;;;14.20
20289;BMP180;10303;51.960;8.372;2024-02-16T04:24:36;99930.00;;;14.20
20289;BMP180;10303;51.960;8.372;2024-02-16T04:27:02;99928.00;;;14.20
20289;BMP180;10303;51.960;8.372;2024-02-16T04:29:28;99942.00;;;14.20
20289;BMP180;10303;51.960;8.372;2024-02-16T04:31:53;99939.00;;;14.20
20289;BMP180;10303;51.960;8.372;2024-02-16T04:34:19;99937.00;;;14.20
20289;BMP180;10303;51.960;8.372;2024-02-16T04:36:45;99932.00;;;14.20
20289;BMP180;10303;51.960;8.372;2024-02-16T04:39:11;99931.00;;;14.20
20289;BMP180;10303;51.960;8.372;2024-02-16T04:41:37;99932.00;;;14.20
20289;BMP180;10303;51.960;8.372;2024-02-16T04:44:04;99929.00;;;14.20
20289;BMP180;10303;51.960;8.372;2024-02-16T04:46:29;99940.00;;;14.20
20289;BMP180;10303;51.960;8.372;2024-02-16T04:48:55;99924.00;;;14.20
20289;BMP180;10303;51.960;8.372;2024-02-16T04:51:21;99940.00;;;14.20
20289;BMP180;10303;51.960;8.372;2024-02-16T04:53:47;99939.00;;;14.20
20289;BMP180;10303;51.960;8.372;2024-02-16T04:56:13;99937.00;;;14.20
20289;BMP180;10303;51.960;8.372;2024-02-16T04:58:43;99932.00;;;14.10
20289;BMP180;10303;51.960;8.372;2024-02-16T05:01:08;99946.00;;;14.10
20289;BMP180;10303;51.960;8.372;2024-02-16T05:03:35;99927.00;;;14.10
20289;BMP180;10303;51.960;8.372;2024-02-16T05:06:01;99919.00;;;14.10
20289;BMP180;10303;51.960;8.372;2024-02-16T05:08:27;99915.00;;;14.10
20289;BMP180;10303;51.960;8.372;2024-02-16T05:10:53;99921.00;;;14.20
20289;BMP180;10303;51.960;8.372;2024-02-16T05:13:19;99918.00;;;14.20
20289;BMP180;10303;51.960;8.372;2024-02-16T05:15:44;99919.00;;;14.20
20289;BMP180;10303;51.960;8.372;2024-02-16T05:18:10;99913.00;;;14.20
20289;BMP180;10303;51.960;8.372;2024-02-16T05:20:40;99930.00;;;14.20
20289;BMP180;10303;51.960;8.372;2024-02-16T05:23:06;99932.00;;;14.20
20289;BMP180;10303;51.960;8.372;2024-02-16T05:25:32;99922.00;;;14.20
20289;BMP180;10303;51.960;8.372;2024-02-16T05:27:58;99914.00;;;14.20
20289;BMP180;10303;51.960;8.372;2024-02-16T05:30:24;99908.00;;;14.20
20289;BMP180;10303;51.960;8.372;2024-02-16T05:32:50;99914.00;;;14.30
20289;BMP180;10303;51.960;8.372;2024-02-16T05:35:18;99892.00;;;14.20
20289;BMP180;10303;51.960;8.372;2024-02-16T05:37:46;99911.00;;;14.20
20289;BMP180;10303;51.960;8.372;2024-02-16T05:40:17;99906.00;;;14.30
20289;BMP180;10303;51.960;8.372;2024-02-16T05:42:55;99902.00;;;14.30
20289;BMP180;10303;51.960;8.372;2024-02-16T05:45:25;99908.00;;;14.30
20289;BMP180;10303;51.960;8.372;2024-02-16T05:47:52;99911.00;;;14.30
20289;BMP180;10303;51.960;8.372;2024-02-16T05:50:21;99908.00;;;14.30
20289;BMP180;10303;51.960;8.372;2024-02-16T05:52:47;99915.00;;;14.30
20289;BMP180;10303;51.960;8.372;2024-02-16T05:55:15;99908.00;;;14.30
20289;BMP180;10303;51.960;8.372;2024-02-16T05:57:44;99905.00;;;14.30
20289;BMP180;10303;51.960;8.372;2024-02-16T06:00:10;99900.00;;;14.30
20289;BMP180;10303;51.960;8.372;2024-02-16T06:02:39;99903.00;;;14.30
20289;BMP180;10303;51.960;8.372;2024-02-16T06:05:05;99910.00;;;14.30
20289;BMP180;10303;51.960;8.372;2024-02-16T06:07:32;99910.00;;;14.40
20289;BMP180;10303;51.960;8.372;2024-02-16T06:09:58;99917.00;;;14.40
20289;BMP180;10303;51.960;8.372;2024-02-16T06:12:24;99920.00;;;14.40
20289;BMP180;10303;51.960;8.372;2024-02-16T06:14:50;99915.00;;;14.40
20289;BMP180;10303;51.960;8.372;2024-02-16T06:17:16;99912.00;;;14.40
20289;BMP180;10303;51.960;8.372;2024-02-16T06:19:43;99917.00;;;14.40
20289;BMP180;10303;51.960;8.372;2024-02-16T06:22:10;99924.00;;;14.40
20289;BMP180;10303;51.960;8.372;2024-02-16T06:24:38;99920.00;;;14.40
20289;BMP180;10303;51.960;8.372;2024-02-16T06:27:04;99923.00;;;14.40
20289;BMP180;10303;51.960;8.372;2024-02-16T06:29:30;99921.00;;;14.40
20289;BMP180;10303;51.960;8.372;2024-02-16T06:31:56;99917.00;;;14.50
20289;BMP180;10303;51.960;8.372;2024-02-16T06:34:23;99929.00;;;14.50
20289;BMP180;10303;51.960;8.372;2024-02-16T06:36:49;99930.00;;;14.50
20289;BMP180;10303;51.960;8.372;2024-02-16T06:39:18;99935.00;;;14.50
20289;BMP180;10303;51.960;8.372;2024-02-16T06:41:45;99941.00;;;14.50
20289;BMP180;10303;51.960;8.372;2024-02-16T06:44:15;99936.00;;;14.50
20289;BMP180;10303;51.960;8.372;2024-02-16T06:46:42;99926.00;;;14.50
20289;BMP180;10303;51.960;8.372;2024-02-16T06:49:08;99931.00;;;14.60
20289;BMP180;10303;51.960;8.372;2024-02-16T06:51:35;99948.00;;;14.60
20289;BMP180;10303;51.960;8.372;2024-02-16T06:54:03;99949.00;;;14.60
20289;BMP180;10303;51.960;8.372;2024-02-16T06:56:30;99956.00;;;14.60
20289;BMP180;10303;51.960;8.372;2024-02-16T06:58:56;99952.00;;;14.60
20289;BMP180;10303;51.960;8.372;2024-02-16T07:01:23;99954.00;;;14.60
20289;BMP180;10303;51.960;8.372;2024-02-16T07:03:48;99968.00;;;14.70
20289;BMP180;10303;51.960;8.372;2024-02-16T07:06:14;99968.00;;;14.70
20289;BMP180;10303;51.960;8.372;2024-02-16T07:08:41;99970.00;;;14.70
20289;BMP180;10303;51.960;8.372;2024-02-16T07:11:07;99974.00;;;14.70
20289;BMP180;10303;51.960;8.372;2024-02-16T07:13:34;99971.00;;;14.70
20289;BMP180;10303;51.960;8.372;2024-02-16T07:16:00;99972.00;;;14.80
20289;BMP180;10303;51.960;8.372;2024-02-16T07:18:26;99974.00;;;14.80
20289;BMP180;10303;51.960;8.372;2024-02-16T07:20:52;99976.00;;;14.80
20289;BMP180;10303;51.960;8.372;2024-02-16T07:23:18;99978.00;;;14.80
20289;BMP180;10303;51.960;8.372;2024-02-16T07:25:44;99976.00;;;14.80
20289;BMP180;10303;51.960;8.372;2024-02-16T07:28:11;99972.00;;;14.80
20289;BMP180;10303;51.960;8.372;2024-02-16T07:30:37;99981.00;;;14.80
20289;BMP180;10303;51.960;8.372;2024-02-16T07:33:07;99975.00;;;14.90
20289;BMP180;10303;51.960;8.372;2024-02-16T07:35:34;99981.00;;;14.90
20289;BMP180;10303;51.960;8.372;2024-02-16T07:38:02;99977.00;;;14.90
20289;BMP180;10303;51.960;8.372;2024-02-16T07:40:28;99968.00;;;14.90
20289;BMP180;10303;51.960;8.372;2024-02-16T07:42:54;99976.00;;;15.00
20289;BMP180;10303;51.960;8.372;2024-02-16T07:45:21;99968.00;;;15.00
20289;BMP180;10303;51.960;8.372;2024-02-16T07:47:47;99975.00;;;15.00
20289;BMP180;10303;51.960;8.372;2024-02-16T07:50:13;99960.00;;;15.10
20289;BMP180;10303;51.960;8.372;2024-02-16T07:52:39;99963.00;;;15.10
20289;BMP180;10303;51.960;8.372;2024-02-16T07:55:06;99959.00;;;15.10
20289;BMP180;10303;51.960;8.372;2024-02-16T07:57:32;99965.00;;;15.20
20289;BMP180;10303;51.960;8.372;2024-02-16T07:59:58;99955.00;;;15.20
20289;BMP180;10303;51.960;8.372;2024-02-16T08:02:24;99957.00;;;15.20
20289;BMP180;10303;51.960;8.372;2024-02-16T08:04:50;99958.00;;;15.30
20289;BMP180;10303;51.960;8.372;2024-02-16T08:07:17;99965.00;;;15.30
20289;BMP180;10303;51.960;8.372;2024-02-16T08:09:47;99969.00;;;15.30
20289;BMP180;10303;51.960;8.372;2024-02-16T08:12:13;99970.00;;;15.40
20289;BMP180;10303;51.960;8.372;2024-02-16T08:14:40;99970.00;;;15.40
20289;BMP180;10303;51.960;8.372;2024-02-16T08:17:07;99962.00;;;15.40
20289;BMP180;10303;51.960;8.372;2024-02-16T08:19:36;99972.00;;;15.40
20289;BMP180;10303;51.960;8.372;2024-02-16T08:22:09;99976.00;;;15.50
20289;BMP180;10303;51.960;8.372;2024-02-16T08:24:35;99985.00;;;15.50
20289;BMP180;10303;51.960;8.372;2024-02-16T08:27:02;99990.00;;;15.60
20289;BMP180;10303;51.960;8.372;2024-02-16T08:29:30;99994.00;;;15.60
20289;BMP180;10303;51.960;8.372;2024-02-16T08:31:56;100001.00;;;15.70
20289;BMP180;10303;51.960;8.372;2024-02-16T08:34:22;100005.00;;;15.80
20289;BMP180;10303;51.960;8.372;2024-02-16T08:36:49;100003.00;;;15.80
20289;BMP180;10303;51.960;8.372;2024-02-16T08:39:16;100013.00;;;15.80
20289;BMP180;10303;51.960;8.372;2024-02-16T08:41:43;100014.00;;;15.90
20289;BMP180;10303;51.960;8.372;2024-02-16T08:44:14;100023.00;;;15.90
20289;BMP180;10303;51.960;8.372;2024-02-16T08:46:40;100014.00;;;15.90
20289;BMP180;10303;51.960;8.372;2024-02-16T08:49:07;100023.00;;;16.00
20289;BMP180;10303;51.960;8.372;2024-02-16T08:51:33;100023.00;;;16.00
20289;BMP180;10303;51.960;8.372;2024-02-16T08:54:00;100029.00;;;16.10
20289;BMP180;10303;51.960;8.372;2024-02-16T08:56:27;100038.00;;;16.10
20289;BMP180;10303;51.960;8.372;2024-02-16T08:58:54;100037.00;;;16.20
20289;BMP180;10303;51.960;8.372;2024-02-16T09:01:34;100038.00;;;16.20
20289;BMP180;10303;51.960;8.372;2024-02-16T09:04:00;100035.00;;;16.30
20289;BMP180;10303;51.960;8.372;2024-02-16T09:06:27;100039.00;;;16.30
20289;BMP180;10303;51.960;8.372;2024-02-16T09:08:54;100044.00;;;16.40
20289;BMP180;10303;51.960;8.372;2024-02-16T09:11:20;100037.00;;;16.50
20289;BMP180;10303;51.960;8.372;2024-02-16T09:13:47;100040.00;;;16.50
20289;BMP180;10303;51.960;8.372;2024-02-16T09:16:13;100045.00;;;16.60
20289;BMP180;10303;51.960;8.372;2024-02-16T09:18:39;100042.00;;;16.70
20289;BMP180;10303;51.960;8.372;2024-02-16T09:21:06;100042.00;;;16.70
20289;BMP180;10303;51.960;8.372;2024-02-16T09:23:33;100055.00;;;16.80
20289;BMP180;10303;51.960;8.372;2024-02-16T09:26:00;100055.00;;;16.80
20289;BMP180;10303;51.960;8.372;2024-02-16T09:28:29;100045.00;;;16.90
20289;BMP180;10303;51.960;8.372;2024-02-16T09:30:56;100060.00;;;16.90
20289;BMP180;10303;51.960;8.372;2024-02-16T09:33:23;100061.00;;;17.00
20289;BMP180;10303;51.960;8.372;2024-02-16T09:35:50;100062.00;;;17.00
20289;BMP180;10303;51.960;8.372;2024-02-16T09:38:16;100064.00;;;17.10
20289;BMP180;10303;51.960;8.372;2024-02-16T09:40:44;100062.00;;;17.20
20289;BMP180;10303;51.960;8.372;2024-02-16T09:43:10;100062.00;;;17.20
20289;BMP180;10303;51.960;8.372;2024-02-16T09:45:37;100076.00;;;17.20
20289;BMP180;10303;51.960;8.372;2024-02-16T09:48:07;100083.00;;;17.20
20289;BMP180;10303;51.960;8.372;2024-02-16T09:50:35;100079.00;;;17.30
20289;BMP180;10303;51.960;8.372;2024-02-16T09:53:05;100074.00;;;17.30
20289;BMP180;10303;51.960;8.372;2024-02-16T09:55:33;100082.00;;;17.40
20289;BMP180;10303;51.960;8.372;2024-02-16T09:58:01;100081.00;;;17.40
20289;BMP180;10303;51.960;8.372;2024-02-16T10:00:27;100077.00;;;17.50
20289;BMP180;10303;51.960;8.372;2024-02-16T10:02:53;100089.00;;;17.50
20289;BMP180;10303;51.960;8.372;2024-02-16T10:05:20;100084.00;;;17.60
20289;BMP180;10303;51.960;8.372;2024-02-16T10:07:47;100094.00;;;17.70
20289;BMP180;10303;51.960;8.372;2024-02-16T10:10:29;100096.00;;;17.80
20289;BMP180;10303;51.960;8.372;2024-02-16T10:13:05;100106.00;;;17.90
20289;BMP180;10303;51.960;8.372;2024-02-16T10:15:32;100096.00;;;18.20
20289;BMP180;10303;51.960;8.372;2024-02-16T10:18:03;100104.00;;;18.40
20289;BMP180;10303;51.960;8.372;2024-02-16T10:20:33;100111.00;;;18.60
20289;BMP180;10303;51.960;8.372;2024-02-16T10:23:10;100114.00;;;18.80
20289;BMP180;10303;51.960;8.372;2024-02-16T10:25:38;100112.00;;;18.90
20289;BMP180;10303;51.960;8.372;2024-02-16T10:28:11;100120.00;;;19.00
20289;BMP180;10303;51.960;8.372;2024-02-16T10:30:41;100122.00;;;19.10
20289;BMP180;10303;51.960;8.372;2024-02-16T10:33:11;100132.00;;;19.20
20289;BMP180;10303;51.960;8.372;2024-02-16T10:35:41;100127.00;;;19.20
20289;BMP180;10303;51.960;8.372;2024-02-16T10:38:10;100116.00;;;19.20
20289;BMP180;10303;51.960;8.372;2024-02-16T10:40:41;100125.00;;;19.20
20289;BMP180;10303;51.960;8.372;2024-02-16T10:43:09;100131.00;;;19.20
20289;BMP180;10303;51.960;8.372;2024-02-16T10:45:39;100134.00;;;19.20
20289;BMP180;10303;51.960;8.372;2024-02-16T10:48:06;100147.00;;;19.30
20289;BMP180;10303;51.960;8.372;2024-02-16T10:50:35;100132.00;;;19.30
20289;BMP180;10303;51.960;8.372;2024-02-16T10:53:16;100155.00;;;19.20
20289;BMP180;10303;51.960;8.372;2024-02-16T10:55:45;100144.00;;;19.20
20289;BMP180;10303;51.960;8.372;2024-02-16T10:58:11;100158.00;;;19.20
20289;BMP180;10303;51.960;8.372;2024-02-16T11:00:55;100154.00;;;19.10
20289;BMP180;10303;51.960;8.372;2024-02-16T11:03:26;100154.00;;;19.10
20289;BMP180;10303;51.960;8.372;2024-02-16T11:05:53;100154.00;;;19.10
20289;BMP180;10303;51.960;8.372;2024-02-16T11:08:24;100160.00;;;19.10
20289;BMP180;10303;51.960;8.372;2024-02-16T11:11:03;100160.00;;;19.00
20289;BMP180;10303;51.960;8.372;2024-02-16T11:13:34;100156.00;;;19.00
20289;BMP180;10303;51.960;8.372;2024-02-16T11:16:08;100162.00;;;19.00
20289;BMP180;10303;51.960;8.372;2024-02-16T11:18:42;100154.00;;;19.00
20289;BMP180;10303;51.960;8.372;2024-02-16T11:21:14;100163.00;;;19.00
20289;BMP180;10303;51.960;8.372;2024-02-16T11:23:41;100160.00;;;19.00
20289;BMP180;10303;51.960;8.372;2024-02-16T11:26:13;100160.00;;;19.00
20289;BMP180;10303;51.960;8.372;2024-02-16T11:28:41;100158.00;;;19.00
20289;BMP180;10303;51.960;8.372;2024-02-16T11:31:07;100163.00;;;19.00
20289;BMP180;10303;51.960;8.372;2024-02-16T11:33:34;100164.00;;;18.90
20289;BMP180;10303;51.960;8.372;2024-02-16T11:36:03;100165.00;;;18.90
20289;BMP180;10303;51.960;8.372;2024-02-16T11:38:38;100159.00;;;18.90
20289;BMP180;10303;51.960;8.372;2024-02-16T11:41:06;100166.00;;;18.90
20289;BMP180;10303;51.960;8.372;2024-02-16T11:43:35;100174.00;;;18.90
20289;BMP180;10303;51.960;8.372;2024-02-16T11:46:15;100173.00;;;18.80
20289;BMP180;10303;51.960;8.372;2024-02-16T11:48:42;100170.00;;;18.80
20289;BMP180;10303;51.960;8.372;2024-02-16T11:51:08;100174.00;;;18.80
20289;BMP180;10303;51.960;8.372;2024-02-16T11:53:34;100174.00;;;18.80
20289;BMP180;10303;51.960;8.372;2024-02-16T11:56:00;100176.00;;;18.90
20289;BMP180;10303;51.960;8.372;2024-02-16T11:58:27;100176.00;;;18.90
20289;BMP180;10303;51.960;8.372;2024-02-16T12:00:53;100177.00;;;18.90
20289;BMP180;10303;51.960;8.372;2024-02-16T12:03:26;100182.00;;;18.90
20289;BMP180;10303;51.960;8.372;2024-02-16T12:05:58;100186.00;;;18.80
20289;BMP180;10303;51.960;8.372;2024-02-16T12:08:33;100184.00;;;18.80
20289;BMP180;10303;51.960;8.372;2024-02-16T12:10:59;100188.00;;;18.90
20289;BMP180;10303;51.960;8.372;2024-02-16T12:13:26;100180.00;;;18.90
20289;BMP180;10303;51.960;8.372;2024-02-16T12:15:52;100189.00;;;18.90
20289;BMP180;10303;51.960;8.372;2024-02-16T12:18:25;100189.00;;;18.90
20289;BMP180;10303;51.960;8.372;2024-02-16T12:21:05;100185.00;;;18.80
20289;BMP180;10303;51.960;8.372;2024-02-16T12:23:33;100182.00;;;18.80
20289;BMP180;10303;51.960;8.372;2024-02-16T12:25:59;100171.00;;;18.80
20289;BMP180;10303;51.960;8.372;2024-02-16T12:28:27;100177.00;;;18.80
20289;BMP180;10303;51.960;8.372;2024-02-16T12:30:55;100189.00;;;18.80
20289;BMP180;10303;51.960;8.372;2024-02-16T12:33:22;100192.00;;;18.80
20289;BMP180;10303;51.960;8.372;2024-02-16T12:35:48;100189.00;;;18.80
20289;BMP180;10303;51.960;8.372;2024-02-16T12:38:14;100188.00;;;18.80
20289;BMP180;10303;51.960;8.372;2024-02-16T12:40:43;100193.00;;;18.80
20289;BMP180;10303;51.960;8.372;2024-02-16T12:43:09;100181.00;;;18.80
20289;BMP180;10303;51.960;8.372;2024-02-16T12:45:37;100195.00;;;18.80
20289;BMP180;10303;51.960;8.372;2024-02-16T12:48:04;100190.00;;;18.80
20289;BMP180;10303;51.960;8.372;2024-02-16T12:50:31;100196.00;;;18.80
20289;BMP180;10303;51.960;8.372;2024-02-16T12:52:57;100191.00;;;18.80
20289;BMP180;10303;51.960;8.372;2024-02-16T12:55:24;100194.00;;;18.80
20289;BMP180;10303;51.960;8.372;2024-02-16T12:57:51;100197.00;;;18.80
20289;BMP180;10303;51.960;8.372;2024-02-16T13:00:17;100189.00;;;18.70
20289;BMP180;10303;51.960;8.372;2024-02-16T13:02:43;100196.00;;;18.70
20289;BMP180;10303;51.960;8.372;2024-02-16T13:05:10;100207.00;;;18.70
20289;BMP180;10303;51.960;8.372;2024-02-16T13:07:37;100197.00;;;18.60
20289;BMP180;10303;51.960;8.372;2024-02-16T13:10:08;100206.00;;;18.60
20289;BMP180;10303;51.960;8.372;2024-02-16T13:12:35;100204.00;;;18.60
20289;BMP180;10303;51.960;8.372;2024-02-16T13:15:04;100212.00;;;18.60
20289;BMP180;10303;51.960;8.372;2024-02-16T13:17:31;100207.00;;;18.60
20289;BMP180;10303;51.960;8.372;2024-02-16T13:19:57;100206.00;;;18.50
20289;BMP180;10303;51.960;8.372;2024-02-16T13:22:33;100210.00;;;18.50
20289;BMP180;10303;51.960;8.372;2024-02-16T13:24:59;100211.00;;;18.50
20289;BMP180;10303;51.960;8.372;2024-02-16T13:27:25;100196.00;;;18.50
20289;BMP180;10303;51.960;8.372;2024-02-16T13:29:51;100216.00;;;18.50
20289;BMP180;10303;51.960;8.372;2024-02-16T13:32:17;100216.00;;;18.50
20289;BMP180;10303;51.960;8.372;2024-02-16T13:34:43;100221.00;;;18.40
20289;BMP180;10303;51.960;8.372;2024-02-16T13:37:09;100220.00;;;18.40
20289;BMP180;10303;51.960;8.372;2024-02-16T13:39:35;100222.00;;;18.40
20289;BMP180;10303;51.960;8.372;2024-02-16T13:42:01;100216.00;;;18.40
20289;BMP180;10303;51.960;8.372;2024-02-16T13:44:27;100228.00;;;18.40
20289;BMP180;10303;51.960;8.372;2024-02-16T13:46:53;100238.00;;;18.40
20289;BMP180;10303;51.960;8.372;2024-02-16T13:49:20;100228.00;;;18.40
20289;BMP180;10303;51.960;8.372;2024-02-16T13:51:46;100242.00;;;18.30
20289;BMP180;10303;51.960;8.372;2024-02-16T13:54:12;100230.00;;;18.30
20289;BMP180;10303;51.960;8.372;2024-02-16T13:56:38;100236.00;;;18.30
20289;BMP180;10303;51.960;8.372;2024-02-16T13:59:05;100246.00;;;18.20
20289;BMP180;10303;51.960;8.372;2024-02-16T14:01:33;100239.00;;;18.20